sensor_id;sensor_type;location;lat;lon;timestamp;temperature;humidity
16781;DHT22;8507;50.056;8.248;2023-05-07T00:00:13;16.90;99.90
16781;DHT22;8507;50.056;8.248;2023-05-07T00:02:41;16.80;99.90
16781;DHT22;8507;50.056;8.248;2023-05-07T00:05:07;16.70;99.90
16781;DHT22;8507;50.056;8.248;2023-05-07T00:07:32;16.60;99.90
16781;DHT22;8507;50.056;8.248;2023-05-07T00:09:58;16.70;99.90
16781;DHT22;8507;50.056;8.248;2023-05-07T00:12:24;16.60;99.90
16781;DHT22;8507;50.056;8.248;2023-05-07T00:14:50;16.60;99.90
16781;DHT22;8507;50.056;8.248;2023-05-07T00:17:16;16.70;99.90
16781;DHT22;8507;50.056;8.248;2023-05-07T00:19:41;16.80;99.90
16781;DHT22;8507;50.056;8.248;2023-05-07T00:22:07;16.90;99.90
16781;DHT22;8507;50.056;8.248;2023-05-07T00:24:33;16.90;99.90
16781;DHT22;8507;50.056;8.248;2023-05-07T00:26:58;16.50;99.90
16781;DHT22;8507;50.056;8.248;2023-05-07T00:29:24;16.50;99.90
16781;DHT22;8507;50.056;8.248;2023-05-07T00:31:50;16.20;99.90
16781;DHT22;8507;50.056;8.248;2023-05-07T00:34:16;16.10;99.90
16781;DHT22;8507;50.056;8.248;2023-05-07T00:36:41;16.20;99.90
16781;DHT22;8507;50.056;8.248;2023-05-07T00:39:07;16.00;99.90
16781;DHT22;8507;50.056;8.248;2023-05-07T00:41:32;15.80;99.90
16781;DHT22;8507;50.056;8.248;2023-05-07T00:43:58;15.90;99.90
16781;DHT22;8507;50.056;8.248;2023-05-07T00:46:24;15.90;99.90
16781;DHT22;8507;50.056;8.248;2023-05-07T00:48:50;15.80;99.90
16781;DHT22;8507;50.056;8.248;2023-05-07T00:51:17;15.70;99.90
16781;DHT22;8507;50.056;8.248;2023-05-07T00:53:43;15.70;99.90
16781;DHT22;8507;50.056;8.248;2023-05-07T00:56:09;15.90;99.90
16781;DHT22;8507;50.056;8.248;2023-05-07T00:58:35;16.00;99.90
16781;DHT22;8507;50.056;8.248;2023-05-07T01:01:01;16.20;99.90
16781;DHT22;8507;50.056;8.248;2023-05-07T01:03:27;16.30;99.90
16781;DHT22;8507;50.056;8.248;2023-05-07T01:05:53;16.40;99.90
16781;DHT22;8507;50.056;8.248;2023-05-07T01:08:21;16.30;99.90
16781;DHT22;8507;50.056;8.248;2023-05-07T01:10:47;16.30;99.90
16781;DHT22;8507;50.056;8.248;2023-05-07T01:13:14;16.30;99.90
16781;DHT22;8507;50.056;8.248;2023-05-07T01:15:40;16.40;99.90
16781;DHT22;8507;50.056;8.248;2023-05-07T01:18:06;16.50;99.90
16781;DHT22;8507;50.056;8.248;2023-05-07T01:20:32;16.40;99.90
16781;DHT22;8507;50.056;8.248;2023-05-07T01:23:00;16.40;99.90
16781;DHT22;8507;50.056;8.248;2023-05-07T01:25:26;16.40;99.90
16781;DHT22;8507;50.056;8.248;2023-05-07T01:27:52;16.50;99.90
16781;DHT22;8507;50.056;8.248;2023-05-07T01:30:18;16.50;99.90
16781;DHT22;8507;50.056;8.248;2023-05-07T01:35:20;16.10;99.90
16781;DHT22;8507;50.056;8.248;2023-05-07T01:37:48;16.00;99.90
16781;DHT22;8507;50.056;8.248;2023-05-07T01:40:14;15.80;99.90
16781;DHT22;8507;50.056;8.248;2023-05-07T01:42:42;15.60;99.90
16781;DHT22;8507;50.056;8.248;2023-05-07T01:45:08;15.50;99.90
16781;DHT22;8507;50.056;8.248;2023-05-07T01:47:35;15.40;99.90
16781;DHT22;8507;50.056;8.248;2023-05-07T01:50:01;15.40;99.90
16781;DHT22;8507;50.056;8.248;2023-05-07T01:52:28;15.30;99.90
16781;DHT22;8507;50.056;8.248;2023-05-07T01:54:53;15.30;99.90
16781;DHT22;8507;50.056;8.248;2023-05-07T01:57:19;15.40;99.90
16781;DHT22;8507;50.056;8.248;2023-05-07T01:59:45;15.50;99.90
16781;DHT22;8507;50.056;8.248;2023-05-07T02:02:10;15.60;99.90
16781;DHT22;8507;50.056;8.248;2023-05-07T02:04:36;15.70;99.90
16781;DHT22;8507;50.056;8.248;2023-05-07T02:07:01;15.70;99.90
16781;DHT22;8507;50.056;8.248;2023-05-07T02:09:27;15.70;99.90
16781;DHT22;8507;50.056;8.248;2023-05-07T02:11:53;15.70;99.90
16781;DHT22;8507;50.056;8.248;2023-05-07T02:14:18;15.70;99.90
16781;DHT22;8507;50.056;8.248;2023-05-07T02:16:45;15.70;99.90
16781;DHT22;8507;50.056;8.248;2023-05-07T02:19:11;15.60;99.90
16781;DHT22;8507;50.056;8.248;2023-05-07T02:21:36;15.60;99.90
16781;DHT22;8507;50.056;8.248;2023-05-07T02:24:02;15.60;99.90
16781;DHT22;8507;50.056;8.248;2023-05-07T02:26:27;15.50;99.90
16781;DHT22;8507;50.056;8.248;2023-05-07T02:28:53;15.50;99.90
16781;DHT22;8507;50.056;8.248;2023-05-07T02:31:19;15.40;99.90
16781;DHT22;8507;50.056;8.248;2023-05-07T02:33:44;15.30;99.90
16781;DHT22;8507;50.056;8.248;2023-05-07T02:36:11;15.30;99.90
16781;DHT22;8507;50.056;8.248;2023-05-07T02:38:37;15.40;99.90
16781;DHT22;8507;50.056;8.248;2023-05-07T02:41:03;15.40;99.90
16781;DHT22;8507;50.056;8.248;2023-05-07T02:43:29;15.50;99.90
16781;DHT22;8507;50.056;8.248;2023-05-07T02:46:05;15.50;99.90
16781;DHT22;8507;50.056;8.248;2023-05-07T02:48:31;15.70;99.90
16781;DHT22;8507;50.056;8.248;2023-05-07T02:50:57;15.80;99.90
16781;DHT22;8507;50.056;8.248;2023-05-07T02:53:23;15.90;99.90
16781;DHT22;8507;50.056;8.248;2023-05-07T02:55:54;15.90;99.90
16781;DHT22;8507;50.056;8.248;2023-05-07T02:58:20;15.90;99.90
16781;DHT22;8507;50.056;8.248;2023-05-07T03:00:46;15.90;99.90
16781;DHT22;8507;50.056;8.248;2023-05-07T03:03:11;15.90;99.90
16781;DHT22;8507;50.056;8.248;2023-05-07T03:05:37;15.90;99.90
16781;DHT22;8507;50.056;8.248;2023-05-07T03:08:02;15.90;99.90
16781;DHT22;8507;50.056;8.248;2023-05-07T03:10:29;15.90;99.90
16781;DHT22;8507;50.056;8.248;2023-05-07T03:12:55;16.10;99.90
16781;DHT22;8507;50.056;8.248;2023-05-07T03:15:21;16.20;99.90
16781;DHT22;8507;50.056;8.248;2023-05-07T03:17:47;16.30;99.90
16781;DHT22;8507;50.056;8.248;2023-05-07T03:20:13;16.40;99.90
16781;DHT22;8507;50.056;8.248;2023-05-07T03:22:38;16.40;99.90
16781;DHT22;8507;50.056;8.248;2023-05-07T03:25:05;16.50;99.90
16781;DHT22;8507;50.056;8.248;2023-05-07T03:27:30;16.50;99.90
16781;DHT22;8507;50.056;8.248;2023-05-07T03:29:56;16.40;99.90
16781;DHT22;8507;50.056;8.248;2023-05-07T03:32:22;16.10;99.90
16781;DHT22;8507;50.056;8.248;2023-05-07T03:34:47;16.10;99.90
16781;DHT22;8507;50.056;8.248;2023-05-07T03:37:13;16.20;99.90
16781;DHT22;8507;50.056;8.248;2023-05-07T03:39:38;16.20;99.90
16781;DHT22;8507;50.056;8.248;2023-05-07T03:42:04;16.30;99.90
16781;DHT22;8507;50.056;8.248;2023-05-07T03:44:29;16.40;99.90
16781;DHT22;8507;50.056;8.248;2023-05-07T03:46:55;16.50;99.90
16781;DHT22;8507;50.056;8.248;2023-05-07T03:49:21;16.50;99.90
16781;DHT22;8507;50.056;8.248;2023-05-07T03:51:46;16.50;99.90
16781;DHT22;8507;50.056;8.248;2023-05-07T03:54:12;16.50;99.90
16781;DHT22;8507;50.056;8.248;2023-05-07T03:56:37;16.40;99.90
16781;DHT22;8507;50.056;8.248;2023-05-07T03:59:03;16.30;99.90
16781;DHT22;8507;50.056;8.248;2023-05-07T04:01:28;16.30;99.90
16781;DHT22;8507;50.056;8.248;2023-05-07T04:03:54;16.20;99.90
16781;DHT22;8507;50.056;8.248;2023-05-07T04:06:19;16.20;99.90
16781;DHT22;8507;50.056;8.248;2023-05-07T04:08:46;16.20;99.90
16781;DHT22;8507;50.056;8.248;2023-05-07T04:14:33;16.20;99.90
16781;DHT22;8507;50.056;8.248;2023-05-07T04:16:59;16.30;99.90
16781;DHT22;8507;50.056;8.248;2023-05-07T04:19:25;16.20;99.90
16781;DHT22;8507;50.056;8.248;2023-05-07T04:21:50;16.10;99.90
16781;DHT22;8507;50.056;8.248;2023-05-07T04:24:16;15.90;99.90
16781;DHT22;8507;50.056;8.248;2023-05-07T04:26:41;15.80;99.90
16781;DHT22;8507;50.056;8.248;2023-05-07T04:29:07;15.80;99.90
16781;DHT22;8507;50.056;8.248;2023-05-07T04:31:33;15.90;99.90
16781;DHT22;8507;50.056;8.248;2023-05-07T04:33:58;16.00;99.90
16781;DHT22;8507;50.056;8.248;2023-05-07T04:36:24;16.00;99.90
16781;DHT22;8507;50.056;8.248;2023-05-07T04:38:53;16.20;99.90
16781;DHT22;8507;50.056;8.248;2023-05-07T04:41:19;16.30;99.90
16781;DHT22;8507;50.056;8.248;2023-05-07T04:43:44;16.40;99.90
16781;DHT22;8507;50.056;8.248;2023-05-07T04:46:10;16.10;99.90
16781;DHT22;8507;50.056;8.248;2023-05-07T04:48:36;15.90;99.90
16781;DHT22;8507;50.056;8.248;2023-05-07T04:51:02;15.80;99.90
16781;DHT22;8507;50.056;8.248;2023-05-07T04:53:27;15.70;99.90
16781;DHT22;8507;50.056;8.248;2023-05-07T04:55:56;15.60;99.90
16781;DHT22;8507;50.056;8.248;2023-05-07T04:58:22;15.60;99.90
16781;DHT22;8507;50.056;8.248;2023-05-07T05:00:49;15.60;99.90
16781;DHT22;8507;50.056;8.248;2023-05-07T05:03:14;15.50;99.90
16781;DHT22;8507;50.056;8.248;2023-05-07T05:05:40;15.60;99.90
16781;DHT22;8507;50.056;8.248;2023-05-07T05:08:05;15.60;99.90
16781;DHT22;8507;50.056;8.248;2023-05-07T05:10:31;15.60;99.90
16781;DHT22;8507;50.056;8.248;2023-05-07T05:12:57;15.60;99.90
16781;DHT22;8507;50.056;8.248;2023-05-07T05:15:22;15.70;99.90
16781;DHT22;8507;50.056;8.248;2023-05-07T05:17:48;15.80;99.90
16781;DHT22;8507;50.056;8.248;2023-05-07T05:20:14;15.90;99.90
16781;DHT22;8507;50.056;8.248;2023-05-07T05:22:40;16.00;99.90
16781;DHT22;8507;50.056;8.248;2023-05-07T05:25:06;16.20;99.90
16781;DHT22;8507;50.056;8.248;2023-05-07T05:27:34;16.20;99.90
16781;DHT22;8507;50.056;8.248;2023-05-07T05:29:59;16.30;99.90
16781;DHT22;8507;50.056;8.248;2023-05-07T05:32:25;16.30;99.90
16781;DHT22;8507;50.056;8.248;2023-05-07T05:34:51;16.30;99.90
16781;DHT22;8507;50.056;8.248;2023-05-07T05:37:16;16.40;99.90
16781;DHT22;8507;50.056;8.248;2023-05-07T05:39:42;16.50;99.90
16781;DHT22;8507;50.056;8.248;2023-05-07T05:42:07;16.60;99.90
16781;DHT22;8507;50.056;8.248;2023-05-07T05:44:33;16.70;99.90
16781;DHT22;8507;50.056;8.248;2023-05-07T05:46:58;16.80;99.90
16781;DHT22;8507;50.056;8.248;2023-05-07T05:49:24;16.80;99.90
16781;DHT22;8507;50.056;8.248;2023-05-07T05:51:50;16.70;99.90
16781;DHT22;8507;50.056;8.248;2023-05-07T05:54:16;16.80;99.90
16781;DHT22;8507;50.056;8.248;2023-05-07T05:56:42;16.90;99.90
16781;DHT22;8507;50.056;8.248;2023-05-07T05:59:07;16.90;99.90
16781;DHT22;8507;50.056;8.248;2023-05-07T06:01:33;16.80;99.90
16781;DHT22;8507;50.056;8.248;2023-05-07T06:03:59;17.00;99.90
16781;DHT22;8507;50.056;8.248;2023-05-07T06:06:24;17.10;99.90
16781;DHT22;8507;50.056;8.248;2023-05-07T06:08:51;17.20;99.90
16781;DHT22;8507;50.056;8.248;2023-05-07T06:11:16;17.10;99.90
16781;DHT22;8507;50.056;8.248;2023-05-07T06:13:42;17.50;99.90
16781;DHT22;8507;50.056;8.248;2023-05-07T06:16:08;17.70;99.90
16781;DHT22;8507;50.056;8.248;2023-05-07T06:18:33;17.90;99.90
16781;DHT22;8507;50.056;8.248;2023-05-07T06:21:01;17.90;99.90
16781;DHT22;8507;50.056;8.248;2023-05-07T06:23:26;17.90;99.90
16781;DHT22;8507;50.056;8.248;2023-05-07T06:25:52;18.30;99.90
16781;DHT22;8507;50.056;8.248;2023-05-07T06:28:18;18.60;99.90
16781;DHT22;8507;50.056;8.248;2023-05-07T06:30:43;18.70;99.90
16781;DHT22;8507;50.056;8.248;2023-05-07T06:33:10;18.80;99.90
16781;DHT22;8507;50.056;8.248;2023-05-07T06:35:36;18.60;99.90
16781;DHT22;8507;50.056;8.248;2023-05-07T06:38:01;18.30;99.90
16781;DHT22;8507;50.056;8.248;2023-05-07T06:40:27;18.70;99.90
16781;DHT22;8507;50.056;8.248;2023-05-07T06:42:52;18.30;99.90
16781;DHT22;8507;50.056;8.248;2023-05-07T06:45:19;18.20;99.90
16781;DHT22;8507;50.056;8.248;2023-05-07T06:47:45;18.40;99.90
16781;DHT22;8507;50.056;8.248;2023-05-07T06:50:11;18.70;99.90
16781;DHT22;8507;50.056;8.248;2023-05-07T06:52:36;18.50;99.90
16781;DHT22;8507;50.056;8.248;2023-05-07T06:55:02;18.60;99.90
16781;DHT22;8507;50.056;8.248;2023-05-07T06:57:28;18.80;99.90
16781;DHT22;8507;50.056;8.248;2023-05-07T06:59:53;19.00;99.90
16781;DHT22;8507;50.056;8.248;2023-05-07T07:02:19;18.60;99.90
16781;DHT22;8507;50.056;8.248;2023-05-07T07:04:44;18.30;99.90
16781;DHT22;8507;50.056;8.248;2023-05-07T07:07:10;18.60;99.90
16781;DHT22;8507;50.056;8.248;2023-05-07T07:09:36;18.70;99.90
16781;DHT22;8507;50.056;8.248;2023-05-07T07:12:01;18.60;99.90
16781;DHT22;8507;50.056;8.248;2023-05-07T07:14:27;18.70;99.90
16781;DHT22;8507;50.056;8.248;2023-05-07T07:16:52;18.60;99.90
16781;DHT22;8507;50.056;8.248;2023-05-07T07:19:18;18.60;99.90
16781;DHT22;8507;50.056;8.248;2023-05-07T07:21:45;18.50;99.90
16781;DHT22;8507;50.056;8.248;2023-05-07T07:24:11;18.40;99.90
16781;DHT22;8507;50.056;8.248;2023-05-07T07:26:36;18.30;99.90
16781;DHT22;8507;50.056;8.248;2023-05-07T07:29:02;18.40;99.90
16781;DHT22;8507;50.056;8.248;2023-05-07T07:31:27;18.40;99.90
16781;DHT22;8507;50.056;8.248;2023-05-07T07:33:53;18.40;99.90
16781;DHT22;8507;50.056;8.248;2023-05-07T07:36:18;18.70;99.90
16781;DHT22;8507;50.056;8.248;2023-05-07T07:38:44;18.70;99.90
16781;DHT22;8507;50.056;8.248;2023-05-07T07:41:10;18.70;99.90
16781;DHT22;8507;50.056;8.248;2023-05-07T07:43:35;18.60;99.90
16781;DHT22;8507;50.056;8.248;2023-05-07T07:46:01;18.50;99.90
16781;DHT22;8507;50.056;8.248;2023-05-07T07:48:27;18.50;99.90
16781;DHT22;8507;50.056;8.248;2023-05-07T07:50:52;18.50;99.90
16781;DHT22;8507;50.056;8.248;2023-05-07T07:53:18;18.50;99.90
16781;DHT22;8507;50.056;8.248;2023-05-07T07:55:44;18.40;99.90
16781;DHT22;8507;50.056;8.248;2023-05-07T07:58:09;18.40;99.90
16781;DHT22;8507;50.056;8.248;2023-05-07T08:00:36;18.50;99.90
16781;DHT22;8507;50.056;8.248;2023-05-07T08:03:02;18.30;99.90
16781;DHT22;8507;50.056;8.248;2023-05-07T08:05:28;18.40;99.90
16781;DHT22;8507;50.056;8.248;2023-05-07T08:07:54;18.40;99.90
16781;DHT22;8507;50.056;8.248;2023-05-07T08:10:21;18.20;99.90
16781;DHT22;8507;50.056;8.248;2023-05-07T08:12:50;18.50;99.90
16781;DHT22;8507;50.056;8.248;2023-05-07T08:15:16;18.60;99.90
16781;DHT22;8507;50.056;8.248;2023-05-07T08:17:43;18.40;99.90
16781;DHT22;8507;50.056;8.248;2023-05-07T08:20:09;18.70;99.90
16781;DHT22;8507;50.056;8.248;2023-05-07T08:22:35;18.70;99.90
16781;DHT22;8507;50.056;8.248;2023-05-07T08:25:01;19.10;99.90
16781;DHT22;8507;50.056;8.248;2023-05-07T08:27:27;19.40;99.90
16781;DHT22;8507;50.056;8.248;2023-05-07T08:29:53;19.20;99.90
16781;DHT22;8507;50.056;8.248;2023-05-07T08:32:19;19.50;99.90
16781;DHT22;8507;50.056;8.248;2023-05-07T08:34:44;19.80;99.90
16781;DHT22;8507;50.056;8.248;2023-05-07T08:37:10;19.80;99.90
16781;DHT22;8507;50.056;8.248;2023-05-07T08:39:35;19.60;99.90
16781;DHT22;8507;50.056;8.248;2023-05-07T08:42:01;19.50;99.90
16781;DHT22;8507;50.056;8.248;2023-05-07T08:44:33;20.10;99.90
16781;DHT22;8507;50.056;8.248;2023-05-07T08:47:01;20.60;99.90
16781;DHT22;8507;50.056;8.248;2023-05-07T08:49:27;20.40;99.90
16781;DHT22;8507;50.056;8.248;2023-05-07T08:51:53;20.10;99.90
16781;DHT22;8507;50.056;8.248;2023-05-07T08:54:19;20.70;99.90
16781;DHT22;8507;50.056;8.248;2023-05-07T08:56:45;20.20;99.90
16781;DHT22;8507;50.056;8.248;2023-05-07T08:59:11;20.80;99.90
16781;DHT22;8507;50.056;8.248;2023-05-07T09:01:37;20.60;99.90
16781;DHT22;8507;50.056;8.248;2023-05-07T09:04:03;20.30;99.90
16781;DHT22;8507;50.056;8.248;2023-05-07T09:06:29;20.80;99.90
16781;DHT22;8507;50.056;8.248;2023-05-07T09:08:55;20.40;99.90
16781;DHT22;8507;50.056;8.248;2023-05-07T09:11:22;21.10;99.90
16781;DHT22;8507;50.056;8.248;2023-05-07T09:13:49;20.90;99.90
16781;DHT22;8507;50.056;8.248;2023-05-07T09:16:20;21.60;99.90
16781;DHT22;8507;50.056;8.248;2023-05-07T09:18:46;21.30;99.90
16781;DHT22;8507;50.056;8.248;2023-05-07T09:21:17;21.20;99.90
16781;DHT22;8507;50.056;8.248;2023-05-07T09:23:43;21.20;99.90
16781;DHT22;8507;50.056;8.248;2023-05-07T09:26:08;21.00;99.90
16781;DHT22;8507;50.056;8.248;2023-05-07T09:28:43;20.80;99.90
16781;DHT22;8507;50.056;8.248;2023-05-07T09:31:10;20.90;99.90
16781;DHT22;8507;50.056;8.248;2023-05-07T09:33:36;21.00;99.90
16781;DHT22;8507;50.056;8.248;2023-05-07T09:36:04;20.80;99.90
16781;DHT22;8507;50.056;8.248;2023-05-07T09:38:30;21.00;99.90
16781;DHT22;8507;50.056;8.248;2023-05-07T09:41:10;21.10;99.90
16781;DHT22;8507;50.056;8.248;2023-05-07T09:43:37;21.10;99.90
16781;DHT22;8507;50.056;8.248;2023-05-07T09:46:11;21.80;99.90
16781;DHT22;8507;50.056;8.248;2023-05-07T09:48:38;21.60;99.90
16781;DHT22;8507;50.056;8.248;2023-05-07T09:51:21;21.80;99.90
16781;DHT22;8507;50.056;8.248;2023-05-07T09:53:47;21.40;99.90
16781;DHT22;8507;50.056;8.248;2023-05-07T09:56:14;21.30;99.90
16781;DHT22;8507;50.056;8.248;2023-05-07T09:58:41;21.90;99.90
16781;DHT22;8507;50.056;8.248;2023-05-07T10:01:07;21.40;99.90
16781;DHT22;8507;50.056;8.248;2023-05-07T10:03:33;21.30;99.90
16781;DHT22;8507;50.056;8.248;2023-05-07T10:06:00;22.10;99.90
16781;DHT22;8507;50.056;8.248;2023-05-07T10:08:26;22.50;99.90
16781;DHT22;8507;50.056;8.248;2023-05-07T10:10:52;22.60;99.90
16781;DHT22;8507;50.056;8.248;2023-05-07T10:13:19;22.70;99.90
16781;DHT22;8507;50.056;8.248;2023-05-07T10:15:44;22.70;99.90
16781;DHT22;8507;50.056;8.248;2023-05-07T10:18:12;23.10;99.90
16781;DHT22;8507;50.056;8.248;2023-05-07T10:20:39;22.80;99.90
16781;DHT22;8507;50.056;8.248;2023-05-07T10:23:07;23.20;99.90
16781;DHT22;8507;50.056;8.248;2023-05-07T10:25:34;23.00;99.90
16781;DHT22;8507;50.056;8.248;2023-05-07T10:28:06;23.50;99.90
16781;DHT22;8507;50.056;8.248;2023-05-07T10:33:25;22.10;99.90
16781;DHT22;8507;50.056;8.248;2023-05-07T10:35:57;21.90;99.90
16781;DHT22;8507;50.056;8.248;2023-05-07T10:38:24;21.80;99.90
16781;DHT22;8507;50.056;8.248;2023-05-07T10:40:51;21.70;99.90
16781;DHT22;8507;50.056;8.248;2023-05-07T10:43:16;22.00;99.90
16781;DHT22;8507;50.056;8.248;2023-05-07T10:45:42;22.40;99.90
16781;DHT22;8507;50.056;8.248;2023-05-07T10:48:14;22.20;99.90
16781;DHT22;8507;50.056;8.248;2023-05-07T10:50:44;22.00;99.90
16781;DHT22;8507;50.056;8.248;2023-05-07T10:53:22;22.00;99.90
16781;DHT22;8507;50.056;8.248;2023-05-07T10:55:51;22.00;99.90
16781;DHT22;8507;50.056;8.248;2023-05-07T10:58:29;22.10;99.90
16781;DHT22;8507;50.056;8.248;2023-05-07T11:01:00;22.10;99.90
16781;DHT22;8507;50.056;8.248;2023-05-07T11:03:26;22.30;99.90
16781;DHT22;8507;50.056;8.248;2023-05-07T11:06:12;22.50;99.90
16781;DHT22;8507;50.056;8.248;2023-05-07T11:09:05;23.20;99.90
16781;DHT22;8507;50.056;8.248;2023-05-07T11:11:47;23.10;99.90
16781;DHT22;8507;50.056;8.248;2023-05-07T11:14:14;23.20;99.90
16781;DHT22;8507;50.056;8.248;2023-05-07T11:16:41;23.70;99.90
16781;DHT22;8507;50.056;8.248;2023-05-07T11:19:08;23.80;99.90
16781;DHT22;8507;50.056;8.248;2023-05-07T11:24:04;23.50;99.90
16781;DHT22;8507;50.056;8.248;2023-05-07T11:26:41;23.10;99.90
16781;DHT22;8507;50.056;8.248;2023-05-07T11:29:11;22.50;99.90
16781;DHT22;8507;50.056;8.248;2023-05-07T11:31:37;22.50;99.90
16781;DHT22;8507;50.056;8.248;2023-05-07T11:34:03;22.90;99.90
16781;DHT22;8507;50.056;8.248;2023-05-07T11:36:31;22.70;99.90
16781;DHT22;8507;50.056;8.248;2023-05-07T11:38:57;22.80;99.90
16781;DHT22;8507;50.056;8.248;2023-05-07T11:41:22;23.40;99.90
16781;DHT22;8507;50.056;8.248;2023-05-07T11:43:59;23.60;99.90
16781;DHT22;8507;50.056;8.248;2023-05-07T11:46:26;23.10;99.90
16781;DHT22;8507;50.056;8.248;2023-05-07T11:48:52;23.20;99.90
16781;DHT22;8507;50.056;8.248;2023-05-07T11:51:22;23.50;99.90
16781;DHT22;8507;50.056;8.248;2023-05-07T11:53:50;23.90;99.90
16781;DHT22;8507;50.056;8.248;2023-05-07T11:56:17;24.30;99.90
16781;DHT22;8507;50.056;8.248;2023-05-07T11:58:44;23.90;99.90
16781;DHT22;8507;50.056;8.248;2023-05-07T12:01:11;23.40;99.90
16781;DHT22;8507;50.056;8.248;2023-05-07T12:03:40;22.90;99.90
16781;DHT22;8507;50.056;8.248;2023-05-07T12:06:09;23.10;99.90
16781;DHT22;8507;50.056;8.248;2023-05-07T12:08:37;23.20;99.90
16781;DHT22;8507;50.056;8.248;2023-05-07T12:11:03;23.20;99.90
16781;DHT22;8507;50.056;8.248;2023-05-07T12:13:32;23.40;99.90
16781;DHT22;8507;50.056;8.248;2023-05-07T12:15:57;23.40;99.90
16781;DHT22;8507;50.056;8.248;2023-05-07T12:18:23;23.60;99.90
16781;DHT22;8507;50.056;8.248;2023-05-07T12:20:50;23.30;99.90
16781;DHT22;8507;50.056;8.248;2023-05-07T12:23:16;23.40;99.90
16781;DHT22;8507;50.056;8.248;2023-05-07T12:25:43;23.80;99.90
16781;DHT22;8507;50.056;8.248;2023-05-07T12:28:18;24.30;99.90
16781;DHT22;8507;50.056;8.248;2023-05-07T12:30:46;23.90;99.90
16781;DHT22;8507;50.056;8.248;2023-05-07T12:33:22;24.10;99.90
16781;DHT22;8507;50.056;8.248;2023-05-07T12:35:48;23.70;99.90
16781;DHT22;8507;50.056;8.248;2023-05-07T12:38:16;24.50;99.90
16781;DHT22;8507;50.056;8.248;2023-05-07T12:40:47;24.70;99.90
16781;DHT22;8507;50.056;8.248;2023-05-07T12:45:43;24.50;99.90
16781;DHT22;8507;50.056;8.248;2023-05-07T12:48:12;24.10;99.90
16781;DHT22;8507;50.056;8.248;2023-05-07T12:50:38;24.10;99.90
16781;DHT22;8507;50.056;8.248;2023-05-07T12:53:04;24.20;99.90
16781;DHT22;8507;50.056;8.248;2023-05-07T12:55:46;24.00;99.90
16781;DHT22;8507;50.056;8.248;2023-05-07T12:58:20;24.30;99.90
16781;DHT22;8507;50.056;8.248;2023-05-07T13:00:50;24.20;99.90
16781;DHT22;8507;50.056;8.248;2023-05-07T13:03:29;23.90;99.90
16781;DHT22;8507;50.056;8.248;2023-05-07T13:06:06;23.70;99.90
16781;DHT22;8507;50.056;8.248;2023-05-07T13:08:34;23.70;99.90
16781;DHT22;8507;50.056;8.248;2023-05-07T13:11:02;24.20;99.90
16781;DHT22;8507;50.056;8.248;2023-05-07T13:13:32;24.00;99.90
16781;DHT22;8507;50.056;8.248;2023-05-07T13:15:58;23.50;99.90
16781;DHT22;8507;50.056;8.248;2023-05-07T13:18:28;23.60;99.90
16781;DHT22;8507;50.056;8.248;2023-05-07T13:20:54;23.70;99.90
16781;DHT22;8507;50.056;8.248;2023-05-07T13:23:20;24.10;99.90
16781;DHT22;8507;50.056;8.248;2023-05-07T13:25:45;24.40;99.90
16781;DHT22;8507;50.056;8.248;2023-05-07T13:28:11;24.30;99.90
16781;DHT22;8507;50.056;8.248;2023-05-07T13:30:37;25.30;99.90
16781;DHT22;8507;50.056;8.248;2023-05-07T13:33:02;25.20;99.90
16781;DHT22;8507;50.056;8.248;2023-05-07T13:35:28;25.20;99.90
16781;DHT22;8507;50.056;8.248;2023-05-07T13:37:54;25.20;99.90
16781;DHT22;8507;50.056;8.248;2023-05-07T13:40:20;25.10;99.90
16781;DHT22;8507;50.056;8.248;2023-05-07T13:42:47;24.80;99.90
16781;DHT22;8507;50.056;8.248;2023-05-07T13:45:12;24.90;99.90
16781;DHT22;8507;50.056;8.248;2023-05-07T13:47:40;25.30;99.90
16781;DHT22;8507;50.056;8.248;2023-05-07T13:50:06;25.00;99.90
16781;DHT22;8507;50.056;8.248;2023-05-07T13:52:32;25.10;99.90
16781;DHT22;8507;50.056;8.248;2023-05-07T13:54:58;25.50;99.90
16781;DHT22;8507;50.056;8.248;2023-05-07T13:57:24;25.20;99.90
16781;DHT22;8507;50.056;8.248;2023-05-07T13:59:49;25.00;99.90
16781;DHT22;8507;50.056;8.248;2023-05-07T14:02:15;24.80;99.90
16781;DHT22;8507;50.056;8.248;2023-05-07T14:04:41;24.90;99.90
16781;DHT22;8507;50.056;8.248;2023-05-07T14:07:06;24.40;99.90
16781;DHT22;8507;50.056;8.248;2023-05-07T14:09:32;24.20;99.90
16781;DHT22;8507;50.056;8.248;2023-05-07T14:11:58;24.40;99.90
16781;DHT22;8507;50.056;8.248;2023-05-07T14:14:24;24.30;99.90
16781;DHT22;8507;50.056;8.248;2023-05-07T14:16:50;24.20;99.90
16781;DHT22;8507;50.056;8.248;2023-05-07T14:19:15;24.20;99.90
16781;DHT22;8507;50.056;8.248;2023-05-07T14:21:41;24.20;99.90
16781;DHT22;8507;50.056;8.248;2023-05-07T14:24:07;23.90;99.90
16781;DHT22;8507;50.056;8.248;2023-05-07T14:26:34;24.20;99.90
16781;DHT22;8507;50.056;8.248;2023-05-07T14:29:00;24.00;99.90
16781;DHT22;8507;50.056;8.248;2023-05-07T14:31:26;23.90;99.90
16781;DHT22;8507;50.056;8.248;2023-05-07T14:33:51;24.30;99.90
16781;DHT22;8507;50.056;8.248;2023-05-07T14:36:17;24.10;99.90
16781;DHT22;8507;50.056;8.248;2023-05-07T14:38:45;24.10;99.90
16781;DHT22;8507;50.056;8.248;2023-05-07T14:41:11;24.20;99.90
16781;DHT22;8507;50.056;8.248;2023-05-07T14:43:36;24.40;99.90
16781;DHT22;8507;50.056;8.248;2023-05-07T14:46:02;24.20;99.90
16781;DHT22;8507;50.056;8.248;2023-05-07T14:48:27;24.60;99.90
16781;DHT22;8507;50.056;8.248;2023-05-07T14:50:53;24.10;99.90
16781;DHT22;8507;50.056;8.248;2023-05-07T14:53:18;24.10;99.90
16781;DHT22;8507;50.056;8.248;2023-05-07T14:55:44;24.20;99.90
16781;DHT22;8507;50.056;8.248;2023-05-07T14:58:10;24.30;99.90
16781;DHT22;8507;50.056;8.248;2023-05-07T15:00:36;24.30;99.90
16781;DHT22;8507;50.056;8.248;2023-05-07T15:03:07;24.30;99.90
16781;DHT22;8507;50.056;8.248;2023-05-07T15:05:33;23.90;99.90
16781;DHT22;8507;50.056;8.248;2023-05-07T15:07:59;23.80;99.90
16781;DHT22;8507;50.056;8.248;2023-05-07T15:10:25;23.70;99.90
16781;DHT22;8507;50.056;8.248;2023-05-07T15:12:51;23.60;99.90
16781;DHT22;8507;50.056;8.248;2023-05-07T15:15:16;23.60;99.90
16781;DHT22;8507;50.056;8.248;2023-05-07T15:17:42;23.50;99.90
16781;DHT22;8507;50.056;8.248;2023-05-07T15:20:08;23.70;99.90
16781;DHT22;8507;50.056;8.248;2023-05-07T15:22:34;23.60;99.90
16781;DHT22;8507;50.056;8.248;2023-05-07T15:25:01;23.70;99.90
16781;DHT22;8507;50.056;8.248;2023-05-07T15:27:27;23.80;99.90
16781;DHT22;8507;50.056;8.248;2023-05-07T15:29:52;23.60;99.90
16781;DHT22;8507;50.056;8.248;2023-05-07T15:32:18;23.60;99.90
16781;DHT22;8507;50.056;8.248;2023-05-07T15:34:43;23.30;99.90
16781;DHT22;8507;50.056;8.248;2023-05-07T15:37:09;23.40;99.90
16781;DHT22;8507;50.056;8.248;2023-05-07T15:39:35;23.20;99.90
16781;DHT22;8507;50.056;8.248;2023-05-07T15:42:00;23.30;99.90
16781;DHT22;8507;50.056;8.248;2023-05-07T15:44:26;23.40;99.90
16781;DHT22;8507;50.056;8.248;2023-05-07T15:46:54;23.60;99.90
16781;DHT22;8507;50.056;8.248;2023-05-07T15:49:19;23.30;99.90
16781;DHT22;8507;50.056;8.248;2023-05-07T15:51:45;23.20;99.90
16781;DHT22;8507;50.056;8.248;2023-05-07T15:54:10;23.10;99.90